Startpagina
METAR-TAF:

METAR-TAF

Vliegvelden :

Tena, Ecuador

breedte: 01-03-35S, lengte: 77-35-00W, hoogte: 376 m

Actueel weer

Dit bericht is 4 uur en het 57 minuten geleden gemaakt, om 22:00 UTC
Weinig wind
Temperatuur 28°C
Vochtigheid 79%
Druk 1009 hPa
Zicht 10 km of meer
Verspreide wolken op 2600 ft
Verspreide wolken op 26000 ft

METAR: SEJD 112200Z 00000KT 9999 SCT026 SCT260 28/24 Q1009 RMK A2980

Tijdstip: 21:57 (02:57 UTC)


TAF: ontbreekt

Waarnemingen en weersverwachtingen van meer dan 4000 vliegvelden (METAR en TAF).

De beschikbare stations zijn de gele en rode punten op de kaart.

Ga met uw muis naar het station om de naam te zien.

Klik dan om waarnemingen en weersverwachtingen te zien.

kaart wijzigen: klik op de groene knoppen met een zwart kruis om in te zoomen, op de groene knop met een streepje om uit te zoomen of op de groene pijlen voor aangrenzende kaarten.


METAR-TAF: